Flight Track Log - Related Links

Times and Time Zones

All times are in EDT time to prevent confusion due to time zone crossing. See the SWA1798 flight status page for this flight to view local times or setup timezone preferences in your user account.

Time Position Orientation Groundspeed Altitude Reporting Facility
EDT Latitude Longitude Course Direction KTS MPH feet Rate Location/Type
Sat 11:45:20 PM 33.9500 -118.4500 259° West 165 190 2,100  Level Southern California TRACON
Sat 11:46:29 PM 33.9361 -118.5389 259° West 231 266 6,400 3,893 Climbing Los Angeles Center
Sat 11:47:31 PM 33.9264 -118.6367 263° West 290 334 10,600 3,220 Climbing Los Angeles Center
Sat 11:48:32 PM 33.9175 -118.7436 264° West 331 381 13,000 1,180 Climbing Los Angeles Center
Sat 11:49:33 PM 33.9108 -118.8383 265° West 344 396 13,000 1,463 Level Los Angeles Center
Sat 11:50:35 PM 33.9519 -118.9608 292° West 347 399 16,000 3,268 Climbing Los Angeles Center
Sat 11:51:36 PM 34.0178 -119.0564 310° West 370 426 19,700 3,393 Climbing Los Angeles Center
Sat 11:52:37 PM 34.0858 -119.1542 310° West 381 438 22,900 2,976 Climbing Los Angeles Center
Sat 11:53:39 PM 34.1564 -119.2589 309° West 399 459 25,800 2,585 Climbing Los Angeles Center
Sat 11:54:40 PM 34.2317 -119.3669 310° West 417 480 28,200 2,164 Climbing Los Angeles Center
Sat 11:55:41 PM 34.3089 -119.4819 309° West 437 503 30,200 2,390 Climbing Los Angeles Center
Sat 11:56:43 PM 34.3889 -119.5981 310° West 449 517 33,100 2,829 Climbing Los Angeles Center
Sat 11:57:44 PM 34.4808 -119.7317 310° West 432 497 36,000 1,426 Climbing Los Angeles Center
Sat 11:58:45 PM 34.5617 -119.8344 314° West 424 488 36,000  Level Los Angeles Center
Sat 11:59:46 PM 34.6467 -119.9228 319° Northwest 443 510 36,000  Level Los Angeles Center
Sun 12:00:48 AM 34.7400 -120.0231 319° Northwest 448 516 36,000  Level Los Angeles Center
Sun 12:01:49 AM 34.8314 -120.1228 318° Northwest 451 519 36,000  Level Los Angeles Center
Sun 12:02:50 AM 34.9433 -120.2444 318° Northwest 455 524 36,000  Level Los Angeles Center
Sun 12:03:53 AM 35.0364 -120.3478 318° Northwest 457 526 36,000  Level Los Angeles Center
Sun 12:04:53 AM 35.1322 -120.4531 318° Northwest 467 537 36,000  Level Los Angeles Center
Sun 12:05:54 AM 35.2261 -120.5589 317° Northwest 465 535 36,000  Level Los Angeles Center
Sun 12:06:55 AM 35.3192 -120.6642 317° Northwest 460 529 36,000  Level Los Angeles Center
Sun 12:07:57 AM 35.4125 -120.7686 318° Northwest 457 526 36,000  Level Los Angeles Center
Sun 12:08:58 AM 35.5286 -120.8889 320° Northwest 457 526 36,000  Level Los Angeles Center
Sun 12:09:59 AM 35.6344 -120.9775 326° Northwest 460 529 36,000  Level Los Angeles Center
Sun 12:10:35 AM 35.6894 -121.0264 324° Northwest 459 528 36,000  Level Oakland Center
Sun 12:11:35 AM 35.7925 -121.1192 324° Northwest 459 528 36,000  Level Oakland Center
Sun 12:12:36 AM 35.8994 -121.2092 326° Northwest 463 533 36,000  Level Oakland Center
Sun 12:13:37 AM 36.0008 -121.3039 323° Northwest 456 525 36,000  Level Oakland Center
Sun 12:14:38 AM 36.1078 -121.3939 326° Northwest 462 532 36,000 -1,131 Level Oakland Center
Sun 12:15:39 AM 36.2119 -121.4853 325° Northwest 460 529 33,700 -2,852 Descending Oakland Center
Sun 12:16:40 AM 36.3144 -121.5803 323° Northwest 460 529 30,200 -3,174 Descending Oakland Center
Sun 12:17:40 AM 36.4206 -121.6717 325° Northwest 458 527 27,300 -2,973 Descending Oakland Center
Sun 12:18:31 AM 36.5167 -121.7667 322° Northwest 440 506 24,700 -2,727 Descending Northern Cal TRACON
Sun 12:19:30 AM 36.6167 -121.8500 326° Northwest 425 489 22,300 -2,218 Descending Northern Cal TRACON
Sun 12:20:30 AM 36.7000 -121.9333 321° Northwest 395 455 20,300 -2,250 Descending Northern Cal TRACON
Sun 12:21:30 AM 36.8000 -121.9833 338° Northwest 384 442 17,800 -2,350 Descending Northern Cal TRACON
Sun 12:22:30 AM 36.9000 -122.0000 352° North 370 426 15,600 -2,300 Descending Northern Cal TRACON
Sun 12:23:30 AM 37.0000 -122.0333 345° North 357 411 13,200 -2,139 Descending Northern Cal TRACON
Sun 12:24:25 AM 37.0833 -122.0500 351° North 339 390 11,500 -1,513 Descending Northern Cal TRACON
Sun 12:25:25 AM 37.1667 -122.0833 342° North 305 351 10,300 -1,400 Descending Northern Cal TRACON
Sun 12:26:25 AM 37.2500 -122.1000 351° North 297 342 8,700 -1,619 Descending Northern Cal TRACON
Sun 12:27:31 AM 37.3333 -122.1167 351° North 288 331 6,900 -1,429 Descending Northern Cal TRACON
Sun 12:28:31 AM 37.4167 -122.1333 351° North 280 322 5,700 -950 Descending Northern Cal TRACON
Sun 12:29:31 AM 37.4833 -122.1167 11° North 245 282 5,000 -800 Descending Northern Cal TRACON
Sun 12:30:31 AM 37.5167 -122.1667 310° West 201 231 4,100 -1,105 Descending Northern Cal TRACON
Sun 12:31:25 AM 37.5500 -122.2167 310° West 186 214 2,900 -1,158 Descending Northern Cal TRACON
Sun 12:32:25 AM 37.5667 -122.2667 293° West 149 171 1,900 -900 Descending Northern Cal TRACON
Sun 12:33:25 AM 37.5833 -122.3000 302° West 136 157 1,100 -762 Descending Northern Cal TRACON
Sun 12:34:31 AM 37.6000 -122.3500 293° West 127 146 300 -727 Descending Northern Cal TRACON
Sun 12:36:00 AM 37.6167 -122.3667 322° Northwest  Level FlightAware Approximate
Sun 12:43:00 AM 37.6191 -122.3752 322° Northwest  Level Estimated

Login

Don't have an account? Register now (free) for customized features, flight alerts, and more!